createdAt,value
2022-08-17T00:03:13.628Z,8.07
2022-08-17T00:08:19.401Z,92.18
2022-08-17T00:13:25.651Z,7.72
2022-08-17T00:19:01.610Z,5.65
2022-08-17T00:23:54.862Z,7.38
2022-08-17T00:28:57.468Z,8.15
2022-08-17T00:34:01.384Z,14.27
2022-08-17T00:39:04.589Z,11.13
2022-08-17T00:44:07.007Z,11.25
2022-08-17T00:49:12.670Z,129.70
2022-08-17T00:54:20.686Z,80.55
2022-08-17T01:00:02.141Z,24.20
2022-08-17T01:05:10.293Z,18.73
2022-08-17T01:10:58.270Z,65.00
2022-08-17T01:15:40.229Z,28.27
2022-08-17T01:20:49.493Z,53.03
2022-08-17T01:25:55.878Z,14.32
2022-08-17T01:31:01.962Z,34.17
2022-08-17T01:36:06.437Z,41.05
2022-08-17T01:41:13.785Z,33.38
2022-08-17T01:46:20.111Z,36.03
2022-08-17T01:51:23.525Z,36.27
2022-08-17T01:56:29.477Z,49.15
2022-08-17T02:01:33.368Z,52.22
2022-08-17T02:06:45.022Z,45.28
2022-08-17T02:11:49.923Z,15.23
2022-08-17T02:16:52.965Z,36.55
2022-08-17T02:21:55.765Z,12.95
2022-08-17T02:26:59.682Z,12.95
2022-08-17T02:32:02.162Z,19.08
2022-08-17T02:37:05.559Z,10.15
2022-08-17T02:42:10.192Z,9.45
2022-08-17T02:47:13.105Z,10.23
2022-08-17T02:52:15.929Z,9.35
2022-08-17T02:57:39.963Z,9.00
2022-08-17T03:02:44.363Z,8.55
2022-08-17T03:07:47.258Z,12.40
2022-08-17T03:12:53.045Z,11.07
2022-08-17T03:17:56.608Z,9.73
2022-08-17T03:23:01.770Z,10.15
2022-08-17T03:28:07.562Z,13.30
2022-08-17T03:33:10.378Z,14.23
2022-08-17T03:38:15.003Z,11.93
2022-08-17T03:43:21.474Z,20.23
2022-08-17T03:48:24.559Z,25.30
2022-08-17T03:53:27.300Z,25.13
2022-08-17T03:58:31.170Z,32.70
2022-08-17T04:03:33.593Z,25.45
2022-08-17T04:08:36.044Z,22.98
2022-08-17T04:13:40.430Z,22.52
2022-08-17T04:18:42.841Z,21.65
2022-08-17T04:23:45.670Z,26.40
2022-08-17T04:28:49.712Z,28.23
2022-08-17T04:33:52.234Z,31.60
2022-08-17T04:38:54.657Z,37.80
2022-08-17T04:43:58.937Z,30.15
2022-08-17T04:49:04.518Z,63.88
2022-08-17T04:54:09.544Z,51.88
2022-08-17T04:59:15.386Z,40.42
2022-08-17T05:04:33.392Z,53.17
2022-08-17T05:09:37.744Z,46.65
2022-08-17T05:14:42.458Z,44.22
2022-08-17T05:19:48.765Z,44.30
2022-08-17T05:24:55.496Z,48.63
2022-08-17T05:29:59.829Z,66.68
2022-08-17T05:35:02.298Z,54.70
2022-08-17T05:40:06.679Z,38.17
2022-08-17T05:45:11.805Z,45.75
2022-08-17T05:50:27.157Z,47.95
2022-08-17T05:55:42.021Z,36.20
2022-08-17T06:00:54.084Z,38.00
2022-08-17T06:06:25.186Z,43.83
2022-08-17T06:11:40.726Z,44.70
2022-08-17T06:16:48.856Z,35.40
2022-08-17T06:21:55.141Z,38.75
2022-08-17T06:27:06.838Z,42.20
2022-08-17T06:32:13.109Z,43.22
2022-08-17T06:37:51.000Z,39.97
2022-08-17T06:43:07.345Z,48.95
2022-08-17T06:48:15.615Z,43.47
2022-08-17T06:53:25.384Z,38.55
2022-08-17T06:58:30.012Z,33.08
2022-08-17T07:03:37.258Z,30.70
2022-08-17T07:08:49.520Z,33.60
2022-08-17T07:14:08.947Z,33.63
2022-08-17T07:19:15.770Z,29.80
2022-08-17T07:29:41.040Z,30.10
2022-08-17T07:35:07.094Z,33.20
2022-08-17T07:40:21.083Z,29.08
2022-08-17T07:45:23.660Z,31.95
2022-08-17T07:50:29.570Z,41.13
2022-08-17T07:55:33.295Z,32.47
2022-08-17T08:00:35.758Z,32.30
2022-08-17T08:05:52.582Z,29.30
2022-08-17T08:11:01.387Z,28.23
2022-08-17T08:16:23.573Z,29.80
2022-08-17T08:21:38.474Z,28.88
2022-08-17T08:26:45.332Z,29.27
2022-08-17T08:37:16.284Z,28.60
2022-08-17T08:42:28.421Z,33.10
2022-08-17T08:47:45.822Z,32.95
2022-08-17T08:53:04.292Z,35.88
2022-08-17T08:58:31.957Z,34.70
2022-08-17T09:04:16.999Z,47.70
2022-08-17T09:09:32.895Z,39.97
2022-08-17T09:14:44.991Z,37.65
2022-08-17T09:19:54.759Z,39.38
2022-08-17T09:25:07.641Z,35.22
2022-08-17T09:30:12.807Z,48.95
2022-08-17T09:35:17.356Z,34.00
2022-08-17T09:40:25.851Z,33.83
2022-08-17T09:45:34.660Z,27.17
2022-08-17T09:51:03.709Z,26.33
2022-08-17T09:56:25.985Z,22.80
2022-08-17T10:01:35.757Z,21.13
2022-08-17T10:06:47.354Z,18.92
2022-08-17T10:11:57.691Z,21.02
2022-08-17T10:17:05.547Z,17.73
2022-08-17T10:22:34.984Z,18.10
2022-08-17T10:27:44.858Z,18.35
2022-08-17T10:32:51.650Z,15.93
2022-08-17T10:38:24.578Z,17.98
2022-08-17T10:44:36.671Z,18.95
2022-08-17T10:49:26.386Z,19.17
2022-08-17T10:54:38.032Z,22.08
2022-08-17T10:59:53.605Z,17.52
2022-08-17T11:05:19.474Z,19.00
2022-08-17T11:10:41.519Z,15.75
2022-08-17T11:16:03.491Z,14.05
2022-08-17T11:21:59.611Z,18.40
2022-08-17T11:27:12.363Z,17.73
2022-08-17T11:32:47.419Z,15.02
2022-08-17T11:38:00.243Z,14.50
2022-08-17T11:43:27.765Z,13.82
2022-08-17T11:48:42.801Z,13.07
2022-08-17T11:59:55.321Z,16.42
2022-08-17T12:05:33.520Z,14.60
2022-08-17T12:10:52.398Z,15.27
2022-08-17T12:15:56.117Z,14.95
2022-08-17T12:21:19.950Z,13.35
2022-08-17T12:26:26.876Z,12.07
2022-08-17T12:31:34.671Z,19.77
2022-08-17T12:36:40.806Z,13.07
2022-08-17T12:41:46.527Z,11.10
2022-08-17T12:46:54.335Z,14.80
2022-08-17T12:52:13.706Z,15.73
2022-08-17T12:57:19.280Z,14.05
2022-08-17T13:02:40.216Z,12.57
2022-08-17T13:07:45.671Z,11.93
2022-08-17T13:12:48.777Z,9.87
2022-08-17T13:18:00.953Z,8.73
2022-08-17T13:23:11.986Z,10.40
2022-08-17T13:28:30.579Z,14.48
2022-08-17T13:33:44.667Z,10.73
2022-08-17T13:38:49.276Z,11.77
2022-08-17T13:43:51.952Z,9.80
2022-08-17T13:49:02.352Z,10.90
2022-08-17T13:54:25.922Z,10.02
2022-08-17T13:59:53.825Z,13.18
2022-08-17T14:04:55.624Z,12.43
2022-08-17T14:10:21.699Z,10.23
2022-08-17T14:20:53.217Z,11.10
2022-08-17T14:26:02.022Z,10.75
2022-08-17T14:31:16.057Z,13.88
2022-08-17T14:36:23.854Z,9.23
2022-08-17T14:41:34.717Z,9.27
2022-08-17T14:46:50.598Z,15.40
2022-08-17T14:51:56.598Z,12.18
2022-08-17T14:57:26.005Z,9.35
2022-08-17T15:02:37.247Z,7.55
2022-08-17T15:07:44.827Z,8.18
2022-08-17T15:12:51.491Z,8.02
2022-08-17T15:17:56.079Z,7.40
2022-08-17T15:23:00.030Z,6.82
2022-08-17T15:28:10.177Z,8.65
2022-08-17T15:33:16.378Z,7.53
2022-08-17T15:38:26.200Z,6.20
2022-08-17T15:43:34.202Z,12.38
2022-08-17T15:48:36.982Z,11.00
2022-08-17T15:53:42.928Z,11.45
2022-08-17T15:58:51.793Z,8.93
2022-08-17T16:04:03.975Z,8.68
2022-08-17T16:09:15.281Z,5.13
2022-08-17T16:14:24.130Z,1.70
2022-08-17T16:19:27.120Z,5.32
2022-08-17T16:24:30.351Z,2.83
2022-08-17T16:29:38.348Z,3.08
2022-08-17T16:34:43.258Z,2.83
2022-08-17T16:39:48.470Z,2.67
2022-08-17T16:44:59.461Z,1.48
2022-08-17T16:50:02.163Z,5.82
2022-08-17T16:55:07.426Z,6.13
2022-08-17T17:00:15.038Z,3.65
2022-08-17T17:05:33.692Z,2.50
2022-08-17T17:10:44.491Z,2.15
2022-08-17T17:15:54.386Z,3.08
2022-08-17T17:21:00.177Z,2.97
2022-08-17T17:26:19.357Z,4.82
2022-08-17T17:31:33.139Z,3.22
2022-08-17T17:36:41.815Z,1.95
2022-08-17T17:41:51.700Z,2.78
2022-08-17T17:47:01.454Z,4.53
2022-08-17T17:52:16.776Z,3.45
2022-08-17T17:57:29.960Z,3.65
2022-08-17T18:02:51.449Z,3.53
2022-08-17T18:08:09.344Z,4.47
2022-08-17T18:13:26.572Z,5.97
2022-08-17T18:18:38.257Z,3.55
2022-08-17T18:23:47.514Z,4.40
2022-08-17T18:28:51.935Z,4.53
2022-08-17T18:34:43.688Z,5.55
2022-08-17T18:39:48.298Z,23.55
2022-08-17T18:44:55.294Z,7.18
2022-08-17T18:50:21.455Z,8.80
2022-08-17T18:55:32.275Z,4.20
2022-08-17T19:00:44.587Z,4.18
2022-08-17T19:05:53.070Z,5.07
2022-08-17T19:11:07.798Z,4.28
2022-08-17T19:16:15.874Z,5.47
2022-08-17T19:21:24.671Z,7.03
2022-08-17T19:26:50.927Z,6.43
2022-08-17T19:31:57.902Z,9.35
2022-08-17T19:37:11.675Z,8.68
2022-08-17T19:42:30.339Z,6.47
2022-08-17T19:47:54.916Z,8.70
2022-08-17T19:53:07.950Z,8.77
2022-08-17T19:58:21.910Z,43.35
2022-08-17T20:03:37.283Z,14.23
2022-08-17T20:08:57.226Z,11.40
2022-08-17T20:14:04.741Z,13.60
2022-08-17T20:19:24.633Z,10.68
2022-08-17T20:24:35.293Z,9.93
2022-08-17T20:30:03.392Z,8.40
2022-08-17T20:35:24.639Z,14.35
2022-08-17T20:40:35.909Z,15.32
2022-08-17T20:46:07.427Z,11.20
2022-08-17T20:51:23.149Z,10.65
2022-08-17T20:56:50.550Z,9.70
2022-08-17T21:02:17.622Z,9.02
2022-08-17T21:07:27.989Z,10.48
2022-08-17T21:12:46.974Z,12.23
2022-08-17T21:17:56.480Z,12.70
2022-08-17T21:23:17.435Z,9.60
2022-08-17T21:28:30.077Z,7.00
2022-08-17T21:33:38.876Z,12.15
2022-08-17T21:39:03.653Z,8.27
2022-08-17T21:44:19.328Z,10.23
2022-08-17T21:49:27.746Z,6.60
2022-08-17T21:54:34.246Z,8.43
2022-08-17T21:59:39.546Z,9.02
2022-08-17T22:04:43.535Z,10.02
2022-08-17T22:09:48.828Z,8.95
2022-08-17T22:15:01.458Z,6.55
2022-08-17T22:20:08.222Z,8.80
2022-08-17T22:25:22.085Z,8.23
2022-08-17T22:30:58.287Z,9.55
2022-08-17T22:36:26.249Z,6.47
2022-08-17T22:41:50.742Z,8.88
2022-08-17T22:47:23.117Z,9.00
2022-08-17T22:52:33.182Z,14.50
2022-08-17T22:57:36.489Z,9.27
2022-08-17T23:02:55.405Z,12.50
2022-08-17T23:07:58.283Z,18.92
2022-08-17T23:13:01.338Z,18.63
2022-08-17T23:18:07.311Z,13.93
2022-08-17T23:23:12.069Z,15.38
2022-08-17T23:28:14.597Z,17.27
2022-08-17T23:33:24.433Z,11.15
2022-08-17T23:38:27.500Z,11.07
2022-08-17T23:43:30.092Z,9.35
2022-08-17T23:48:36.946Z,11.25
2022-08-17T23:53:43.756Z,11.48
2022-08-17T23:58:46.359Z,13.97
